Time;durP1;ratioP1;P1;durP2;ratioP2;P2;SDS_P1;SDS_P2;PMS_P1;PMS_P2;Temp;Humidity;BMP_temperature;BMP_pressure;BME280_temperature;BME280_humidity;BME280_pressure;Samples;Min_cycle;Max_cycle;Signal;HPM_P1;HPM_P2
2020/12/13 00:00:26;;;;;;;;;;;15.00;99.90;;;14.23;100.00;101013.88;5053321;28;20364;-63
2020/12/13 00:02:54;;;;;;;;;;;14.90;99.90;;;14.17;100.00;101008.84;5052143;28;19951;-63
2020/12/13 00:05:21;;;;;;;;;;;14.80;99.90;;;14.10;100.00;100998.41;5052861;28;19928;-63
2020/12/13 00:07:49;;;;;;;;;;;14.80;99.90;;;14.03;100.00;101010.84;5053154;28;19932;-63
2020/12/13 00:10:17;;;;;;;;;;;14.70;99.90;;;13.98;100.00;101009.03;5052545;28;19970;-63
2020/12/13 00:12:44;;;;;;;;;;;14.60;99.90;;;14.00;100.00;101012.25;5051973;28;19928;-63
2020/12/13 00:15:11;;;;;;;;;;;14.60;99.90;;;13.97;100.00;101006.63;5052761;28;19929;-63
2020/12/13 00:17:40;;;;;;;;;;;14.60;99.90;;;13.96;100.00;100997.66;5053126;28;19929;-63
2020/12/13 00:20:07;;;;;;;;;;;14.60;99.90;;;13.90;100.00;100996.19;5052622;28;19928;-62
2020/12/13 00:22:34;;;;;;;;;;;14.50;99.90;;;13.83;100.00;100990.34;5051364;28;19978;-62
2020/12/13 00:25:02;;;;;;;;;;;14.50;99.90;;;13.75;100.00;100984.84;5052343;28;19929;-63
2020/12/13 00:27:29;;;;;;;;;;;14.40;99.90;;;13.73;100.00;100985.16;5052801;28;19970;-62
2020/12/13 00:29:56;;;;;;;;;;;14.40;99.90;;;13.74;100.00;100984.03;5052695;28;19925;-63
2020/12/13 00:32:28;;;;;;;;;;;14.40;99.90;;;13.82;100.00;100991.47;5051744;28;19971;-64
2020/12/13 00:34:56;;;;;;;;;;;14.40;99.90;;;13.89;100.00;100985.63;5052290;28;20383;-63
2020/12/13 00:37:23;;;;;;;;;;;14.50;99.90;;;13.92;100.00;100991.22;5052700;28;19935;-63
2020/12/13 00:39:51;;;;;;;;;;;14.50;99.90;;;13.96;100.00;100981.34;5052589;28;20374;-62
2020/12/13 00:42:18;;;;;;;;;;;14.60;99.90;;;13.97;100.00;100974.00;5051784;28;20196;-63
2020/12/13 00:44:45;;;;;;;;;;;14.60;99.90;;;13.98;100.00;100973.69;5052199;28;20338;-63
2020/12/13 00:47:12;;;;;;;;;;;14.60;99.90;;;14.06;100.00;100983.84;5052539;28;19990;-62
2020/12/13 00:49:39;;;;;;;;;;;14.70;99.90;;;14.11;100.00;100978.28;5052491;28;20372;-63
2020/12/13 00:52:07;;;;;;;;;;;14.70;99.90;;;14.11;100.00;100981.00;5051439;28;19925;-63
2020/12/13 00:54:35;;;;;;;;;;;14.70;99.90;;;14.13;100.00;100981.47;5051852;28;19978;-63
2020/12/13 00:57:02;;;;;;;;;;;14.80;99.90;;;14.17;100.00;100982.47;5052440;28;19925;-63
2020/12/13 00:59:29;;;;;;;;;;;14.80;99.90;;;14.21;100.00;100972.59;5052347;28;19933;-63
2020/12/13 01:01:56;;;;;;;;;;;14.80;99.90;;;14.26;100.00;100966.19;5051508;28;19983;-63
2020/12/13 01:04:24;;;;;;;;;;;14.90;99.90;;;14.30;100.00;100963.66;5051271;28;19979;-63
2020/12/13 01:06:51;;;;;;;;;;;14.90;99.90;;;14.31;100.00;100957.13;5052346;28;19925;-63
2020/12/13 01:09:19;;;;;;;;;;;15.00;99.90;;;14.34;100.00;100949.19;5052154;28;19933;-63
2020/12/13 01:11:46;;;;;;;;;;;15.00;99.90;;;14.38;100.00;100949.38;5051520;28;19979;-63
2020/12/13 01:14:13;;;;;;;;;;;15.00;99.90;;;14.44;100.00;100953.56;5051551;28;20066;-63
2020/12/13 01:16:40;;;;;;;;;;;15.10;99.90;;;14.47;100.00;100951.00;5052267;28;19979;-63
2020/12/13 01:19:07;;;;;;;;;;;15.10;99.90;;;14.53;100.00;100948.97;5052097;28;19925;-63
2020/12/13 01:21:35;;;;;;;;;;;15.20;99.90;;;14.58;100.00;100937.94;5051342;28;19979;-63
2020/12/13 01:24:02;;;;;;;;;;;15.20;99.90;;;14.61;100.00;100943.56;5051305;28;19929;-63
2020/12/13 01:26:30;;;;;;;;;;;15.30;99.90;;;14.65;100.00;100939.06;5052046;28;19929;-63
2020/12/13 01:28:57;;;;;;;;;;;15.30;99.90;;;14.67;100.00;100931.41;5052154;28;19932;-63
2020/12/13 01:31:24;;;;;;;;;;;15.30;99.90;;;14.68;100.00;100921.34;5051671;28;19971;-63
2020/12/13 01:33:52;;;;;;;;;;;15.30;99.90;;;14.67;100.00;100925.97;5053328;28;19928;-63
2020/12/13 01:36:21;;;;;;;;;;;15.30;99.90;;;14.67;100.00;100922.44;5055975;28;19955;-63
2020/12/13 01:38:48;;;;;;;;;;;15.30;99.90;;;14.65;100.00;100924.69;5056108;28;19925;-63
2020/12/13 01:41:16;;;;;;;;;;;15.30;99.90;;;14.64;100.00;100918.44;5055608;28;19925;-63
2020/12/13 01:43:57;;;;;;;;;;;15.30;99.90;;;14.62;100.00;100925.31;5054665;28;19929;-63
2020/12/13 01:46:25;;;;;;;;;;;15.20;99.90;;;14.61;100.00;100920.97;5056007;28;19955;-62
2020/12/13 01:49:00;;;;;;;;;;;15.20;99.90;;;14.58;100.00;100910.72;5055992;28;19928;-63
2020/12/13 01:51:40;;;;;;;;;;;15.20;99.90;;;14.57;100.00;100909.09;5055336;28;19974;-63
2020/12/13 01:54:12;;;;;;;;;;;15.20;99.90;;;14.54;100.00;100909.72;5055107;28;19925;-63
2020/12/13 01:56:41;;;;;;;;;;;15.20;99.90;;;14.52;100.00;100909.25;5055365;28;19931;-63
2020/12/13 01:59:10;;;;;;;;;;;15.20;99.90;;;14.51;100.00;100913.91;5055790;28;20383;-63
2020/12/13 02:01:38;;;;;;;;;;;15.10;99.90;;;14.47;100.00;100912.13;5055012;28;19978;-63
2020/12/13 02:04:07;;;;;;;;;;;15.10;99.90;;;14.46;100.00;100911.31;5054849;28;19925;-63
2020/12/13 02:06:35;;;;;;;;;;;15.10;99.90;;;14.48;100.00;100908.28;5055421;28;20019;-63
2020/12/13 02:09:03;;;;;;;;;;;15.10;99.90;;;14.50;100.00;100903.34;5055417;28;19978;-63
2020/12/13 02:11:31;;;;;;;;;;;15.10;99.90;;;14.52;100.00;100901.09;5055112;28;19929;-63
2020/12/13 02:13:59;;;;;;;;;;;15.10;99.90;;;14.50;100.00;100892.44;5054212;28;20302;-63
2020/12/13 02:16:28;;;;;;;;;;;15.10;99.90;;;14.47;100.00;100895.81;5055288;28;19925;-63
2020/12/13 02:18:55;;;;;;;;;;;15.10;99.90;;;14.49;100.00;100893.56;5055322;28;19971;-63
2020/12/13 02:21:22;;;;;;;;;;;15.10;99.90;;;14.48;100.00;100883.78;5054942;28;20355;-62
2020/12/13 02:23:50;;;;;;;;;;;15.10;99.90;;;14.47;100.00;100887.63;5053968;28;20430;-63
2020/12/13 02:26:17;;;;;;;;;;;15.20;99.90;;;14.45;100.00;100881.69;5055030;28;19929;-63
2020/12/13 02:28:45;;;;;;;;;;;15.10;99.90;;;14.46;100.00;100880.59;5055187;28;19925;-63
2020/12/13 02:31:12;;;;;;;;;;;15.10;99.90;;;14.44;100.00;100886.31;5055126;28;19925;-63
2020/12/13 02:33:41;;;;;;;;;;;15.10;99.90;;;14.43;100.00;100881.22;5053863;28;19955;-63
2020/12/13 02:36:08;;;;;;;;;;;15.10;99.90;;;14.44;100.00;100890.97;5054880;28;19979;-63
2020/12/13 02:38:36;;;;;;;;;;;15.10;99.90;;;14.44;100.00;100889.03;5055003;28;19924;-63
2020/12/13 02:41:04;;;;;;;;;;;15.10;99.90;;;14.41;100.00;100884.22;5054914;28;19991;-63
2020/12/13 02:43:31;;;;;;;;;;;15.10;99.90;;;14.43;100.00;100886.66;5053052;28;19970;-62
2020/12/13 02:45:58;;;;;;;;;;;15.10;99.90;;;14.43;100.00;100884.75;5054665;28;19925;-63
2020/12/13 02:48:26;;;;;;;;;;;15.10;99.90;;;14.45;100.00;100879.78;5054867;28;19928;-63
2020/12/13 02:50:53;;;;;;;;;;;15.10;99.90;;;14.49;100.00;100883.47;5054297;28;19929;-63
2020/12/13 02:53:20;;;;;;;;;;;15.10;99.90;;;14.52;100.00;100890.22;5053402;28;19955;-63
2020/12/13 02:55:47;;;;;;;;;;;15.20;99.90;;;14.57;100.00;100879.97;5054674;28;19991;-63
2020/12/13 02:58:16;;;;;;;;;;;15.20;99.90;;;14.59;100.00;100872.28;5054751;28;19931;-62
2020/12/13 03:00:43;;;;;;;;;;;15.20;99.90;;;14.60;100.00;100867.66;5054876;28;19925;-63
2020/12/13 03:03:10;;;;;;;;;;;15.30;99.90;;;14.60;100.00;100871.19;5053124;28;19924;-63
2020/12/13 03:05:37;;;;;;;;;;;15.30;99.90;;;14.62;100.00;100873.59;5054254;28;19925;-63
2020/12/13 03:08:05;;;;;;;;;;;15.30;99.90;;;14.63;100.00;100862.41;5054315;28;19925;-63
2020/12/13 03:10:32;;;;;;;;;;;15.30;99.90;;;14.66;100.00;100858.22;5054572;28;19978;-63
2020/12/13 03:12:59;;;;;;;;;;;15.30;99.90;;;14.67;100.00;100854.41;5053122;28;19921;-62
2020/12/13 03:15:27;;;;;;;;;;;15.30;99.90;;;14.67;100.00;100855.22;5054008;28;19978;-63
2020/12/13 03:17:55;;;;;;;;;;;15.30;99.90;;;14.70;100.00;100851.06;5054318;28;19925;-63
2020/12/13 03:20:22;;;;;;;;;;;15.40;99.90;;;14.73;100.00;100848.50;5054221;28;19978;-63
2020/12/13 03:22:49;;;;;;;;;;;15.40;99.90;;;14.74;100.00;100852.03;5052915;28;19932;-63
2020/12/13 03:25:16;;;;;;;;;;;15.40;99.90;;;14.77;100.00;100854.13;5053684;28;19925;-62
2020/12/13 03:27:43;;;;;;;;;;;15.40;99.90;;;14.77;100.00;100854.13;5054215;28;19955;-63
2020/12/13 03:30:11;;;;;;;;;;;15.40;99.90;;;14.79;100.00;100857.31;5053968;28;19978;-63
2020/12/13 03:32:39;;;;;;;;;;;15.50;99.90;;;14.80;100.00;100856.22;5052685;28;19933;-63
2020/12/13 03:35:06;;;;;;;;;;;15.50;99.90;;;14.80;100.00;100853.50;5053663;28;19994;-63
2020/12/13 03:37:33;;;;;;;;;;;15.40;99.90;;;14.82;100.00;100851.25;5053782;28;20500;-63
2020/12/13 03:40:00;;;;;;;;;;;15.50;99.90;;;14.84;100.00;100849.00;5053895;28;19925;-62
2020/12/13 03:42:28;;;;;;;;;;;15.50;99.90;;;14.84;100.00;100835.38;5052532;28;19924;-62
2020/12/13 03:44:55;;;;;;;;;;;15.50;99.90;;;14.86;100.00;100838.59;5053257;28;19970;-63
2020/12/13 03:47:22;;;;;;;;;;;15.50;99.90;;;14.87;100.00;100840.19;5053634;28;19928;-63
2020/12/13 03:49:50;;;;;;;;;;;15.50;99.90;;;14.90;100.00;100842.28;5053852;28;19970;-63
2020/12/13 03:52:17;;;;;;;;;;;15.60;99.90;;;14.90;100.00;100839.56;5052475;28;20299;-63
2020/12/13 03:54:45;;;;;;;;;;;15.60;99.90;;;14.91;100.00;100830.28;5053145;28;19932;-63
2020/12/13 03:57:12;;;;;;;;;;;15.60;99.90;;;14.92;100.00;100834.63;5052626;28;19932;-65
2020/12/13 03:59:39;;;;;;;;;;;15.60;99.90;;;14.92;100.00;100822.91;5053526;28;19979;-65
2020/12/13 04:02:06;;;;;;;;;;;15.60;99.90;;;14.92;100.00;100831.88;5052584;28;19978;-65
2020/12/13 04:04:34;;;;;;;;;;;15.60;99.90;;;14.94;100.00;100826.91;5052554;28;19933;-63
2020/12/13 04:07:02;;;;;;;;;;;15.60;99.90;;;14.93;100.00;100822.59;5053339;28;19979;-65
2020/12/13 04:09:29;;;;;;;;;;;15.60;99.90;;;14.95;100.00;100822.28;5053136;28;20346;-63
2020/12/13 04:11:56;;;;;;;;;;;15.60;99.90;;;14.94;100.00;100818.75;5052610;28;19929;-63
2020/12/13 04:14:23;;;;;;;;;;;15.60;99.90;;;14.95;100.00;100820.38;5052404;28;19994;-62
2020/12/13 04:16:50;;;;;;;;;;;15.60;99.90;;;14.97;100.00;100820.84;5053261;28;20003;-64
2020/12/13 04:19:17;;;;;;;;;;;15.60;99.90;;;14.98;100.00;100817.00;5053100;28;19938;-65
2020/12/13 04:21:45;;;;;;;;;;;15.60;99.90;;;14.98;100.00;100813.47;5052434;28;19925;-64
2020/12/13 04:24:13;;;;;;;;;;;15.70;99.90;;;15.00;100.00;100819.38;5052333;28;19929;-64
2020/12/13 04:26:40;;;;;;;;;;;15.70;99.90;;;15.02;100.00;100819.88;5052855;28;19978;-64
2020/12/13 04:29:07;;;;;;;;;;;15.70;99.90;;;15.01;100.00;100827.25;5053072;28;19924;-64
2020/12/13 04:31:34;;;;;;;;;;;15.70;99.90;;;15.03;100.00;100819.56;5052570;28;20338;-65
2020/12/13 04:34:01;;;;;;;;;;;15.70;99.90;;;15.03;100.00;100826.94;5051782;28;20372;-64
2020/12/13 04:36:29;;;;;;;;;;;15.70;99.90;;;15.03;100.00;100816.84;5052330;28;20374;-64
2020/12/13 04:38:56;;;;;;;;;;;15.70;99.90;;;15.03;100.00;100814.13;5052662;28;20326;-64
2020/12/13 04:41:24;;;;;;;;;;;15.70;99.90;;;15.04;100.00;100821.16;5052573;28;20345;-64
2020/12/13 04:43:51;;;;;;;;;;;15.70;99.90;;;15.04;100.00;100815.72;5051440;28;19924;-64
2020/12/13 04:46:18;;;;;;;;;;;15.70;99.90;;;15.05;100.00;100814.59;5052535;28;19931;-64
2020/12/13 04:48:46;;;;;;;;;;;15.70;99.90;;;15.05;100.00;100814.59;5052462;28;19929;-64
2020/12/13 04:51:19;;;;;;;;;;;15.70;99.90;;;15.06;100.00;100815.38;5052358;28;19936;-64
2020/12/13 04:53:50;;;;;;;;;;;15.70;99.90;;;15.06;100.00;100816.19;5051442;28;19924;-65
2020/12/13 04:56:19;;;;;;;;;;;15.70;99.90;;;15.05;100.00;100817.31;5052282;28;20023;-64
2020/12/13 04:58:48;;;;;;;;;;;15.70;99.90;;;15.08;100.00;100807.69;5052450;28;20375;-64
2020/12/13 05:01:15;;;;;;;;;;;15.70;99.90;;;15.08;100.00;100813.13;5052398;28;19979;-64
2020/12/13 05:03:42;;;;;;;;;;;15.70;99.90;;;15.08;100.00;100816.66;5051485;28;19978;-64
2020/12/13 05:06:09;;;;;;;;;;;15.70;99.90;;;15.08;100.00;100811.22;5051997;28;19931;-65
2020/12/13 05:08:36;;;;;;;;;;;15.70;99.90;;;15.08;100.00;100808.50;5052154;28;19929;-64
2020/12/13 05:11:04;;;;;;;;;;;15.70;99.90;;;15.07;100.00;100809.63;5052190;28;19928;-64
2020/12/13 05:13:31;;;;;;;;;;;15.80;99.90;;;15.10;100.00;100808.19;5051003;28;19932;-64
2020/12/13 05:15:59;;;;;;;;;;;15.80;99.90;;;15.09;100.00;100801.13;5051872;28;19928;-64
2020/12/13 05:18:26;;;;;;;;;;;15.80;99.90;;;15.07;100.00;100787.84;5052429;28;20354;-64
2020/12/13 05:20:53;;;;;;;;;;;15.80;99.90;;;15.08;100.00;100786.72;5051766;28;20310;-65
2020/12/13 05:23:20;;;;;;;;;;;15.70;99.90;;;15.07;100.00;100782.41;5051064;28;20350;-64
2020/12/13 05:25:49;;;;;;;;;;;15.70;99.90;;;15.08;100.00;100784.00;5052040;28;19928;-64
2020/12/13 05:28:18;;;;;;;;;;;15.80;99.90;;;15.07;100.00;100785.13;5051543;28;19925;-64
2020/12/13 05:30:47;;;;;;;;;;;15.70;99.90;;;15.05;100.00;100781.91;5052322;28;19928;-64
2020/12/13 05:33:20;;;;;;;;;;;15.70;99.90;;;15.05;100.00;100779.19;5050851;28;19924;-64
2020/12/13 05:35:48;;;;;;;;;;;15.70;99.90;;;15.05;100.00;100783.81;5052051;28;19936;-64
2020/12/13 05:38:17;;;;;;;;;;;15.70;99.90;;;15.04;100.00;100785.78;5052226;28;19929;-64
2020/12/13 05:40:44;;;;;;;;;;;15.70;99.90;;;15.06;100.00;100777.25;5052290;28;19925;-64
2020/12/13 05:43:15;;;;;;;;;;;15.70;99.90;;;15.04;100.00;100772.16;5050969;28;20364;-64
2020/12/13 05:51:37;;;;;;;;;;;15.70;99.90;;;15.04;100.00;100760.47;5051945;28;19931;-65
2020/12/13 05:54:08;;;;;;;;;;;15.70;99.90;;;15.04;100.00;100760.47;5051263;28;19932;-65
2020/12/13 05:56:35;;;;;;;;;;;15.70;99.90;;;15.03;100.00;100758.84;5051800;28;19925;-65
2020/12/13 05:59:02;;;;;;;;;;;15.70;99.90;;;15.04;100.00;100755.00;5051892;28;19929;-64
2020/12/13 06:01:31;;;;;;;;;;;15.70;99.90;;;15.04;100.00;100747.66;5051681;28;19925;-64
2020/12/13 06:04:00;;;;;;;;;;;15.70;99.90;;;15.03;100.00;100756.94;5050886;28;19924;-65
2020/12/13 06:06:28;;;;;;;;;;;15.70;99.90;;;15.03;100.00;100759.66;5051807;28;20031;-65
2020/12/13 06:09:07;;;;;;;;;;;15.70;99.90;;;15.04;100.00;100757.72;5051784;28;20387;-64
2020/12/13 06:11:44;;;;;;;;;;;15.70;99.90;;;15.03;100.00;100761.56;5051528;28;19936;-64
2020/12/13 06:14:17;;;;;;;;;;;15.70;99.90;;;15.04;100.00;100750.38;5051114;28;19924;-64
2020/12/13 06:16:45;;;;;;;;;;;15.70;99.90;;;15.04;100.00;100747.66;5051913;28;19925;-64
2020/12/13 06:19:15;;;;;;;;;;;15.70;99.90;;;15.06;100.00;100747.31;5052845;28;20375;-64
2020/12/13 06:21:44;;;;;;;;;;;15.70;99.90;;;15.06;100.00;100744.59;5054772;28;19924;-64
2020/12/13 06:24:11;;;;;;;;;;;15.70;99.90;;;15.07;100.00;100744.28;5054461;28;19970;-64
2020/12/13 06:26:39;;;;;;;;;;;15.70;99.90;;;15.08;100.00;100734.16;5055160;28;19994;-64
2020/12/13 06:29:07;;;;;;;;;;;15.80;99.90;;;15.08;100.00;100740.41;5055246;28;20010;-64
2020/12/13 06:31:35;;;;;;;;;;;15.80;99.90;;;15.08;100.00;100743.13;5054805;28;19924;-64
2020/12/13 06:34:02;;;;;;;;;;;15.80;99.90;;;15.09;100.00;100742.03;5054293;28;20300;-65
2020/12/13 06:36:33;;;;;;;;;;;15.80;99.90;;;15.08;100.00;100748.59;5054964;28;19925;-64
2020/12/13 06:39:00;;;;;;;;;;;15.80;99.90;;;15.05;100.00;100743.78;5055077;28;19979;-64
2020/12/13 06:41:29;;;;;;;;;;;15.70;99.90;;;15.07;100.00;100752.44;5054690;28;19936;-64
2020/12/13 06:44:01;;;;;;;;;;;15.70;99.90;;;15.06;100.00;100752.75;5054234;28;19968;-64
2020/12/13 06:46:29;;;;;;;;;;;15.70;99.90;;;15.05;100.00;100745.69;5054891;28;20475;-64
2020/12/13 06:48:56;;;;;;;;;;;15.70;99.90;;;15.05;100.00;100741.06;5054796;28;20421;-64
2020/12/13 06:51:32;;;;;;;;;;;15.70;99.90;;;15.05;100.00;100748.41;5054663;28;19938;-62
2020/12/13 06:54:00;;;;;;;;;;;15.70;99.90;;;15.06;100.00;100752.75;5053741;28;19952;-65
2020/12/13 06:56:27;;;;;;;;;;;15.70;99.90;;;15.03;100.00;100747.94;5054640;28;19928;-63
2020/12/13 06:58:56;;;;;;;;;;;15.70;99.90;;;15.02;100.00;100740.88;5054638;28;19971;-63
2020/12/13 07:01:26;;;;;;;;;;;15.70;99.90;;;15.01;100.00;100739.31;5054524;28;20032;-62
2020/12/13 07:03:53;;;;;;;;;;;15.70;99.90;;;14.99;100.00;100736.91;5053418;28;19931;-63
2020/12/13 07:06:23;;;;;;;;;;;15.70;99.90;;;14.99;100.00;100742.34;5054419;28;19932;-63
2020/12/13 07:08:54;;;;;;;;;;;15.70;99.90;;;15.02;100.00;100743.63;5054656;28;20024;-62
2020/12/13 07:11:24;;;;;;;;;;;15.70;99.90;;;15.03;100.00;100732.41;5054348;28;20414;-63
2020/12/13 07:13:53;;;;;;;;;;;15.70;99.90;;;15.03;100.00;100737.06;5053251;28;19940;-63
2020/12/13 07:16:29;;;;;;;;;;;15.70;99.90;;;15.02;100.00;100736.25;5053834;28;20011;-63
2020/12/13 07:19:04;;;;;;;;;;;15.70;99.90;;;15.02;100.00;100747.16;5054505;28;20024;-63
2020/12/13 07:21:31;;;;;;;;;;;15.70;99.90;;;14.98;100.00;100739.94;5053835;28;20334;-63
2020/12/13 07:24:00;;;;;;;;;;;15.60;99.90;;;14.95;100.00;100735.94;5053447;28;19983;-63
2020/12/13 07:26:29;;;;;;;;;;;15.60;99.90;;;14.94;100.00;100733.53;5054025;28;19979;-62
2020/12/13 07:28:57;;;;;;;;;;;15.60;99.90;;;14.94;100.00;100731.63;5054305;28;19924;-63
2020/12/13 07:31:25;;;;;;;;;;;15.60;99.90;;;14.94;100.00;100725.38;5053925;28;19925;-63
2020/12/13 07:33:53;;;;;;;;;;;15.60;99.90;;;14.90;100.00;100722.47;5052920;28;19929;-62
2020/12/13 07:36:21;;;;;;;;;;;15.60;99.90;;;14.88;100.00;100719.28;5053955;28;19928;-63
2020/12/13 07:38:48;;;;;;;;;;;15.50;99.90;;;14.88;100.00;100722.00;5053940;28;19936;-62
2020/12/13 07:41:21;;;;;;;;;;;15.50;99.90;;;14.89;100.00;100715.47;5053644;28;19994;-63
2020/12/13 07:43:59;;;;;;;;;;;15.50;99.90;;;14.90;100.00;100711.59;5052802;28;19987;-63
2020/12/13 07:46:27;;;;;;;;;;;15.60;99.90;;;14.94;100.00;100720.72;5053936;28;19924;-63
2020/12/13 07:49:01;;;;;;;;;;;15.60;99.90;;;14.96;100.00;100721.19;5053558;28;19970;-62
2020/12/13 07:51:29;;;;;;;;;;;15.60;99.90;;;14.98;100.00;100718.16;5053523;28;19924;-63
2020/12/13 07:53:56;;;;;;;;;;;15.60;99.90;;;15.00;100.00;100721.38;5052505;28;20618;-63
2020/12/13 07:56:26;;;;;;;;;;;15.60;99.90;;;15.03;100.00;100726.16;5053667;28;19933;-62
2020/12/13 07:59:07;;;;;;;;;;;15.70;99.90;;;15.02;100.00;100724.56;5053322;28;19971;-62
2020/12/13 08:01:35;;;;;;;;;;;15.70;99.90;;;15.02;100.00;100730.81;5053174;28;19924;-63
2020/12/13 08:04:02;;;;;;;;;;;15.70;99.90;;;15.05;100.00;100724.72;5052297;28;20384;-63
2020/12/13 08:06:29;;;;;;;;;;;15.70;99.90;;;15.08;100.00;100724.06;5053552;28;20297;-63
2020/12/13 08:08:56;;;;;;;;;;;15.70;99.90;;;15.12;100.00;100726.97;5052711;28;19929;-64
2020/12/13 08:11:24;;;;;;;;;;;15.70;99.90;;;15.12;100.00;100725.03;5053240;28;19955;-63
2020/12/13 08:13:54;;;;;;;;;;;15.80;99.90;;;15.12;100.00;100719.59;5051971;28;19971;-63
2020/12/13 08:16:24;;;;;;;;;;;15.80;99.90;;;15.10;100.00;100721.84;5053146;28;19947;-62
2020/12/13 08:18:53;;;;;;;;;;;15.80;99.90;;;15.11;100.00;100717.19;5053128;28;19924;-62
2020/12/13 08:21:25;;;;;;;;;;;15.80;99.90;;;15.10;100.00;100710.16;5052893;28;19974;-63
2020/12/13 08:23:56;;;;;;;;;;;15.70;99.90;;;15.11;100.00;100709.00;5052210;28;19928;-62
2020/12/13 08:26:23;;;;;;;;;;;15.80;99.90;;;15.15;100.00;100710.78;5052985;28;19933;-62
2020/12/13 08:28:53;;;;;;;;;;;15.80;99.90;;;15.15;100.00;100710.78;5052771;28;20389;-63
2020/12/13 08:31:24;;;;;;;;;;;15.80;99.90;;;15.16;100.00;100726.00;5052783;28;19979;-65
2020/12/13 08:34:00;;;;;;;;;;;15.80;99.90;;;15.22;100.00;100724.72;5051929;28;20392;-63
2020/12/13 08:36:27;;;;;;;;;;;15.80;99.90;;;15.28;100.00;100731.59;5052951;28;20387;-63
2020/12/13 08:39:06;;;;;;;;;;;15.90;99.90;;;15.39;100.00;100744.88;5052592;28;20441;-63
2020/12/13 08:41:34;;;;;;;;;;;16.00;99.90;;;15.47;100.00;100738.63;5052148;28;20058;-63
2020/12/13 08:44:03;;;;;;;;;;;16.10;99.90;;;15.55;100.00;100746.00;5051773;28;20061;-62
2020/12/13 08:46:33;;;;;;;;;;;16.20;99.90;;;15.58;100.00;100742.63;5052645;28;19971;-63
2020/12/13 08:49:01;;;;;;;;;;;16.20;99.90;;;15.62;100.00;100751.75;5052665;28;19931;-63
2020/12/13 08:51:29;;;;;;;;;;;16.30;99.90;;;15.63;100.00;100753.34;5052316;28;19937;-65
2020/12/13 08:53:57;;;;;;;;;;;16.30;99.90;;;15.60;100.00;100748.53;5051450;28;19933;-63
2020/12/13 08:56:32;;;;;;;;;;;16.20;99.90;;;15.57;100.00;100749.19;5052498;28;19933;-63
2020/12/13 08:58:59;;;;;;;;;;;16.20;99.90;;;15.56;100.00;100755.78;5052321;28;19924;-63
2020/12/13 09:01:29;;;;;;;;;;;16.20;99.90;;;15.58;100.00;100753.53;5052208;28;19978;-63
2020/12/13 09:03:57;;;;;;;;;;;16.20;99.90;;;15.60;100.00;100751.25;5050848;28;19968;-63
2020/12/13 09:06:31;;;;;;;;;;;16.20;99.90;;;15.64;100.00;100757.69;5052607;28;20019;-63
2020/12/13 09:09:09;;;;;;;;;;;16.30;99.90;;;15.68;100.00;100753.19;5052376;28;20363;-62
2020/12/13 09:11:36;;;;;;;;;;;16.30;99.90;;;15.66;100.00;100755.41;5052117;28;19978;-63
2020/12/13 09:14:03;;;;;;;;;;;16.30;99.90;;;15.66;100.00;100760.88;5051568;28;19925;-62
2020/12/13 09:16:33;;;;;;;;;;;16.30;99.90;;;15.67;100.00;100759.75;5052197;28;19971;-63
2020/12/13 09:19:08;;;;;;;;;;;16.30;99.90;;;15.67;100.00;100765.19;5052206;28;19963;-64
2020/12/13 09:21:57;;;;;;;;;;;16.30;99.90;;;15.69;100.00;100760.22;5051866;28;19986;-63
2020/12/13 09:24:26;;;;;;;;;;;16.30;99.90;;;15.72;100.00;100762.28;5046196;28;20398;-63
2020/12/13 09:27:01;;;;;;;;;;;16.40;99.90;;;15.79;100.00;100763.41;5052076;28;19975;-62
2020/12/13 09:29:28;;;;;;;;;;;16.40;99.90;;;15.90;100.00;100766.56;5051932;28;20011;-63
2020/12/13 09:31:56;;;;;;;;;;;16.50;99.90;;;15.99;100.00;100770.06;5051547;28;20323;-63
2020/12/13 09:34:24;;;;;;;;;;;16.60;99.90;;;16.04;100.00;100774.53;5051546;28;19955;-62
2020/12/13 09:36:51;;;;;;;;;;;16.70;99.90;;;16.06;100.00;100769.56;5052205;28;19925;-63
2020/12/13 09:39:19;;;;;;;;;;;16.70;99.90;;;16.18;100.00;100769.66;5051788;28;19929;-63
2020/12/13 09:41:46;;;;;;;;;;;16.80;99.90;;;16.18;100.00;100772.38;5051582;28;19992;-63
2020/12/13 09:44:13;;;;;;;;;;;16.80;99.90;;;16.23;100.00;100774.94;5051339;28;19933;-63
2020/12/13 09:46:40;;;;;;;;;;;16.80;99.90;;;16.22;100.00;100786.97;5052096;28;19929;-62
2020/12/13 09:49:08;;;;;;;;;;;16.80;99.90;;;16.13;100.00;100781.56;5051810;28;19925;-63
2020/12/13 09:51:36;;;;;;;;;;;16.80;99.90;;;16.20;100.00;100797.44;5051490;28;20257;-63
2020/12/13 09:54:03;;;;;;;;;;;16.80;99.90;;;16.29;100.00;100790.78;5052118;28;19928;-63
2020/12/13 09:56:30;;;;;;;;;;;16.90;99.90;;;16.24;100.00;100798.38;5055458;28;19971;-63
2020/12/13 09:58:57;;;;;;;;;;;16.90;99.90;;;16.25;100.00;100811.69;5055737;28;19925;-62
2020/12/13 10:01:25;;;;;;;;;;;16.90;99.90;;;16.27;100.00;100808.63;5055527;28;19933;-64
2020/12/13 10:03:54;;;;;;;;;;;16.90;99.90;;;16.28;100.00;100802.03;5054738;28;19925;-63
2020/12/13 10:06:33;;;;;;;;;;;16.90;99.90;;;16.28;100.00;100805.56;5055789;28;20272;-63
2020/12/13 10:09:07;;;;;;;;;;;16.90;99.90;;;16.32;100.00;100795.59;5055655;28;19929;-63
2020/12/13 10:11:37;;;;;;;;;;;17.00;99.90;;;16.34;100.00;100793.34;5055259;28;19937;-63
2020/12/13 10:14:04;;;;;;;;;;;17.00;99.90;;;16.44;100.00;100791.38;5054857;28;19928;-63
2020/12/13 10:16:32;;;;;;;;;;;17.00;99.90;;;16.54;100.00;100788.25;5055441;28;19986;-63
2020/12/13 10:18:59;;;;;;;;;;;17.10;99.90;;;16.56;100.00;100791.50;5055505;28;19925;-63
2020/12/13 10:21:28;;;;;;;;;;;17.10;99.90;;;16.64;100.00;100785.19;5055009;28;19929;-63
2020/12/13 10:23:55;;;;;;;;;;;17.20;99.90;;;16.74;100.00;100785.59;5054347;28;19924;-63
2020/12/13 10:26:23;;;;;;;;;;;17.30;99.90;;;16.89;100.00;100784.22;5055152;28;19928;-63
2020/12/13 10:28:51;;;;;;;;;;;17.50;99.90;;;16.94;100.00;100786.72;5055532;28;20019;-63
2020/12/13 10:31:19;;;;;;;;;;;17.50;99.90;;;16.98;100.00;100792.34;5054828;28;19982;-63
2020/12/13 10:33:46;;;;;;;;;;;17.60;99.90;;;16.96;100.00;100787.22;5054078;28;19978;-63
2020/12/13 10:36:14;;;;;;;;;;;17.60;99.90;;;16.88;100.00;100786.13;5054995;28;19928;-62
2020/12/13 10:38:42;;;;;;;;;;;17.50;99.90;;;16.84;100.00;100784.41;5055160;28;19925;-63
2020/12/13 10:41:10;;;;;;;;;;;17.50;99.90;;;16.89;100.00;100781.47;5054918;28;19925;-63
2020/12/13 10:43:37;;;;;;;;;;;17.50;99.90;;;16.99;100.00;100781.09;5053856;28;19929;-63
2020/12/13 10:46:06;;;;;;;;;;;17.60;99.90;;;17.08;100.00;100770.09;5055166;28;19925;-65
2020/12/13 10:48:33;;;;;;;;;;;17.70;99.90;;;17.11;100.00;100786.63;5054462;28;20331;-63
2020/12/13 10:51:01;;;;;;;;;;;17.70;99.90;;;17.10;100.00;100776.00;5054869;28;19925;-64
2020/12/13 10:53:28;;;;;;;;;;;17.70;99.90;;;16.98;100.00;100776.75;5053329;28;19963;-64
2020/12/13 10:55:57;;;;;;;;;;;17.60;99.90;;;16.93;100.00;100780.47;5054650;28;19925;-65
2020/12/13 10:58:24;;;;;;;;;;;17.60;99.90;;;16.96;100.00;100776.28;5054759;28;19929;-65
2020/12/13 11:00:51;;;;;;;;;;;17.60;99.90;;;17.03;100.00;100764.81;5054531;28;19970;-65
2020/12/13 11:03:18;;;;;;;;;;;17.70;99.90;;;17.07;100.00;100761.09;5053367;28;19933;-65
2020/12/13 11:05:46;;;;;;;;;;;17.80;99.90;;;17.08;100.00;100772.81;5053984;28;20058;-65
2020/12/13 11:08:13;;;;;;;;;;;17.70;99.90;;;17.12;100.00;100769.06;5054594;28;19929;-63
2020/12/13 11:10:45;;;;;;;;;;;17.70;99.90;;;17.16;100.00;100761.00;5054496;28;20010;-64
2020/12/13 11:13:13;;;;;;;;;;;17.80;99.90;;;17.17;100.00;100762.63;5053327;28;21951;-65